Time;durP1;ratioP1;P1;durP2;ratioP2;P2;SDS_P1;SDS_P2;PMS_P1;PMS_P2;Temp;Humidity;BMP_temperature;BMP_pressure;BME280_temperature;BME280_humidity;BME280_pressure;Samples;Min_cycle;Max_cycle;Signal;HPM_P1;HPM_P2
2022/04/09 00:00:31;;;;;;;4.53;1.55;;;;;;;;;;5054000;28;20036;-64
2022/04/09 00:02:57;;;;;;;5.13;1.58;;;;;;;;;;5053646;28;20074;-66
2022/04/09 00:05:23;;;;;;;5.90;1.52;;;;;;;;;;5053502;28;20024;-63
2022/04/09 00:07:49;;;;;;;4.20;1.33;;;;;;;;;;5053421;28;20056;-67
2022/04/09 00:10:16;;;;;;;4.20;1.42;;;;;;;;;;5053526;28;20052;-67
2022/04/09 00:12:47;;;;;;;5.20;1.30;;;;;;;;;;5053446;28;20029;-66
2022/04/09 00:15:13;;;;;;;5.35;1.85;;;;;;;;;;5053053;28;20429;-68
2022/04/09 00:17:41;;;;;;;5.25;1.40;;;;;;;;;;5053427;28;20024;-65
2022/04/09 00:20:08;;;;;;;5.85;1.60;;;;;;;;;;5053526;28;20033;-66
2022/04/09 00:22:34;;;;;;;5.15;1.60;;;;;;;;;;5048785;28;20025;-65
2022/04/09 00:25:00;;;;;;;3.45;1.27;;;;;;;;;;5034891;28;20021;-66
2022/04/09 00:27:26;;;;;;;6.10;1.70;;;;;;;;;;5049942;28;20053;-67
2022/04/09 00:29:52;;;;;;;7.88;1.40;;;;;;;;;;5033156;28;20024;-68
2022/04/09 00:32:19;;;;;;;4.75;1.50;;;;;;;;;;5033213;28;20108;-67
2022/04/09 00:34:45;;;;;;;4.78;1.60;;;;;;;;;;5032918;28;20393;-67
2022/04/09 00:37:11;;;;;;;2.42;1.10;;;;;;;;;;5033265;28;20476;-67
2022/04/09 00:39:37;;;;;;;5.65;1.50;;;;;;;;;;5032967;28;20108;-66
2022/04/09 00:42:03;;;;;;;6.38;1.63;;;;;;;;;;5033164;28;20032;-66
2022/04/09 00:44:29;;;;;;;6.95;1.58;;;;;;;;;;5032839;28;20507;-67
2022/04/09 00:46:55;;;;;;;6.53;1.70;;;;;;;;;;5036773;28;20496;-64
2022/04/09 00:49:20;;;;;;;4.03;1.17;;;;;;;;;;5052945;28;20033;-66
2022/04/09 00:51:48;;;;;;;4.35;1.42;;;;;;;;;;5052405;28;20068;-67
2022/04/09 00:54:15;;;;;;;6.22;1.38;;;;;;;;;;5052755;28;20435;-65
2022/04/09 00:56:41;;;;;;;8.70;1.60;;;;;;;;;;5035018;28;20021;-66
2022/04/09 00:59:11;;;;;;;4.53;1.50;;;;;;;;;;5052499;28;20037;-66
2022/04/09 01:01:38;;;;;;;4.82;1.30;;;;;;;;;;5052793;28;20029;-68
2022/04/09 01:04:06;;;;;;;5.82;1.42;;;;;;;;;;5052498;28;20056;-64
2022/04/09 01:06:36;;;;;;;5.68;1.65;;;;;;;;;;5052403;28;20514;-62
2022/04/09 01:09:02;;;;;;;8.10;1.60;;;;;;;;;;5052648;28;20400;-63
2022/04/09 01:11:28;;;;;;;6.38;1.42;;;;;;;;;;5034420;28;20470;-67
2022/04/09 01:13:54;;;;;;;5.45;1.88;;;;;;;;;;5052223;28;20476;-66
2022/04/09 01:16:22;;;;;;;5.53;1.58;;;;;;;;;;5034781;28;20024;-68
2022/04/09 01:18:48;;;;;;;5.40;1.35;;;;;;;;;;5033607;28;20106;-67
2022/04/09 01:21:14;;;;;;;6.65;1.70;;;;;;;;;;5052056;28;20465;-66
2022/04/09 01:23:40;;;;;;;9.68;1.63;;;;;;;;;;5052160;28;20025;-66
2022/04/09 01:26:06;;;;;;;7.78;1.60;;;;;;;;;;5070348;28;20033;-67
2022/04/09 01:28:32;;;;;;;6.82;1.63;;;;;;;;;;5059769;28;20028;-67
2022/04/09 01:30:59;;;;;;;5.40;1.42;;;;;;;;;;5052020;28;20025;-67
2022/04/09 01:33:25;;;;;;;4.63;1.40;;;;;;;;;;5052009;28;20032;-68
2022/04/09 01:35:51;;;;;;;4.53;1.45;;;;;;;;;;5051266;28;20040;-68
2022/04/09 01:38:17;;;;;;;4.80;1.40;;;;;;;;;;5034082;28;20465;-68
2022/04/09 01:40:43;;;;;;;5.93;1.52;;;;;;;;;;5051647;28;20116;-67
2022/04/09 01:43:09;;;;;;;4.70;1.45;;;;;;;;;;5052070;28;20035;-66
2022/04/09 01:45:36;;;;;;;3.20;1.10;;;;;;;;;;5034287;28;20112;-67
2022/04/09 01:48:02;;;;;;;3.50;1.30;;;;;;;;;;5034247;28;20033;-67
2022/04/09 01:50:29;;;;;;;10.10;1.40;;;;;;;;;;5052238;28;20029;-68
2022/04/09 01:52:56;;;;;;;6.35;1.77;;;;;;;;;;5051887;28;20024;-67
2022/04/09 01:55:22;;;;;;;5.90;1.52;;;;;;;;;;5034048;28;20024;-63
2022/04/09 01:57:48;;;;;;;5.30;1.52;;;;;;;;;;5034005;28;20036;-63
2022/04/09 02:00:16;;;;;;;5.40;1.25;;;;;;;;;;5051292;28;20066;-60
2022/04/09 02:02:42;;;;;;;3.80;1.40;;;;;;;;;;5050991;28;20029;-65
2022/04/09 02:05:11;;;;;;;5.68;1.40;;;;;;;;;;5051113;28;20028;-62
2022/04/09 02:07:45;;;;;;;5.32;1.23;;;;;;;;;;5051194;28;20048;-66
2022/04/09 02:10:13;;;;;;;3.90;1.40;;;;;;;;;;5044911;28;20104;-67
2022/04/09 02:12:39;;;;;;;4.57;1.27;;;;;;;;;;5051553;28;20032;-62
2022/04/09 02:15:05;;;;;;;4.50;1.33;;;;;;;;;;5051399;28;20052;-64
2022/04/09 02:17:31;;;;;;;5.25;1.42;;;;;;;;;;5051700;28;20033;-62
2022/04/09 02:19:57;;;;;;;4.00;1.27;;;;;;;;;;5051717;28;20073;-61
2022/04/09 02:22:23;;;;;;;7.68;1.63;;;;;;;;;;5051564;28;20103;-64
2022/04/09 02:24:53;;;;;;;5.68;1.50;;;;;;;;;;5050566;28;20098;-64
2022/04/09 02:27:19;;;;;;;6.35;1.50;;;;;;;;;;5051551;28;20091;-67
2022/04/09 02:29:46;;;;;;;4.22;1.40;;;;;;;;;;5051498;28;20380;-63
2022/04/09 02:32:13;;;;;;;4.93;1.30;;;;;;;;;;5051448;28;20641;-62
2022/04/09 02:34:39;;;;;;;3.78;1.40;;;;;;;;;;5051056;28;20491;-62
2022/04/09 02:37:05;;;;;;;5.07;1.48;;;;;;;;;;5033967;28;20067;-63
2022/04/09 02:39:31;;;;;;;10.88;1.70;;;;;;;;;;5051957;28;20052;-63
2022/04/09 02:41:57;;;;;;;5.90;1.60;;;;;;;;;;5048825;28;20053;-65
2022/04/09 02:44:24;;;;;;;4.72;1.40;;;;;;;;;;5047322;28;20397;-59
2022/04/09 02:46:50;;;;;;;4.13;1.67;;;;;;;;;;5051398;28;20044;-63
2022/04/09 02:49:16;;;;;;;6.85;1.40;;;;;;;;;;5051677;28;20049;-63
2022/04/09 02:51:45;;;;;;;4.78;1.50;;;;;;;;;;5052830;28;20455;-65
2022/04/09 02:54:15;;;;;;;2.60;1.10;;;;;;;;;;5055566;28;20166;-60
2022/04/09 02:56:49;;;;;;;6.35;1.58;;;;;;;;;;5055274;28;20040;-65
2022/04/09 02:59:15;;;;;;;6.07;1.50;;;;;;;;;;5047490;28;20063;-66
2022/04/09 03:01:43;;;;;;;5.53;1.30;;;;;;;;;;5035108;28;20029;-61
2022/04/09 03:04:09;;;;;;;4.68;1.52;;;;;;;;;;5054930;28;20020;-63
2022/04/09 03:06:35;;;;;;;4.45;1.58;;;;;;;;;;5054763;28;20094;-64
2022/04/09 03:09:01;;;;;;;5.28;1.40;;;;;;;;;;5054729;28;20033;-62
2022/04/09 03:11:27;;;;;;;5.55;1.48;;;;;;;;;;5054388;28;20089;-60
2022/04/09 03:13:53;;;;;;;5.32;1.55;;;;;;;;;;5054484;28;20057;-66
2022/04/09 03:16:19;;;;;;;7.28;1.52;;;;;;;;;;5054608;28;20029;-61
2022/04/09 03:18:45;;;;;;;7.20;1.48;;;;;;;;;;5054213;28;20486;-61
2022/04/09 03:21:11;;;;;;;5.47;1.48;;;;;;;;;;5054352;28;20075;-64
2022/04/09 03:23:37;;;;;;;5.90;1.52;;;;;;;;;;5054520;28;20109;-64
2022/04/09 03:26:05;;;;;;;5.18;1.40;;;;;;;;;;5046166;28;20451;-60
2022/04/09 03:28:31;;;;;;;4.72;1.50;;;;;;;;;;5054060;28;20610;-59
2022/04/09 03:30:57;;;;;;;26.20;9.00;;;;;;;;;;5036683;28;20054;-65
2022/04/09 03:33:23;;;;;;;13.82;5.00;;;;;;;;;;5053708;28;20027;-60
2022/04/09 03:35:49;;;;;;;13.52;4.25;;;;;;;;;;5054186;28;20053;-62
2022/04/09 03:38:15;;;;;;;10.85;3.30;;;;;;;;;;5054158;28;20075;-66
2022/04/09 03:40:42;;;;;;;8.90;2.70;;;;;;;;;;5054323;28;20070;-65
2022/04/09 03:43:08;;;;;;;7.10;2.83;;;;;;;;;;5054046;28;20032;-64
2022/04/09 03:45:34;;;;;;;9.82;3.08;;;;;;;;;;5045129;28;20119;-63
2022/04/09 03:48:01;;;;;;;7.32;2.53;;;;;;;;;;5054200;28;20064;-66
2022/04/09 03:50:27;;;;;;;9.80;2.80;;;;;;;;;;5054043;28;20032;-59
2022/04/09 03:52:53;;;;;;;6.38;2.35;;;;;;;;;;5053872;28;20043;-66
2022/04/09 03:55:19;;;;;;;7.93;2.42;;;;;;;;;;5053994;28;20104;-60
2022/04/09 03:57:46;;;;;;;6.47;2.20;;;;;;;;;;5054146;28;20103;-61
2022/04/09 04:00:14;;;;;;;7.32;2.50;;;;;;;;;;5053793;28;20086;-60
2022/04/09 04:02:40;;;;;;;8.48;2.10;;;;;;;;;;5035354;28;20366;-65
2022/04/09 04:05:07;;;;;;;58.65;4.25;;;;;;;;;;5054054;28;20017;-64
2022/04/09 04:07:33;;;;;;;22.42;3.85;;;;;;;;;;5053836;28;20033;-61
2022/04/09 04:10:09;;;;;;;17.90;3.05;;;;;;;;;;5034706;28;20041;-62
2022/04/09 04:12:35;;;;;;;16.80;2.70;;;;;;;;;;5035568;28;20033;-63
2022/04/09 04:15:02;;;;;;;10.68;2.42;;;;;;;;;;5053313;28;20064;-65
2022/04/09 04:17:37;;;;;;;15.65;2.42;;;;;;;;;;5051824;28;20038;-62
2022/04/09 04:20:05;;;;;;;19.58;2.83;;;;;;;;;;5053303;28;20052;-64
2022/04/09 04:22:30;;;;;;;12.07;2.58;;;;;;;;;;5053240;28;20082;-65
2022/04/09 04:24:56;;;;;;;16.50;2.83;;;;;;;;;;5061603;28;20021;-65
2022/04/09 04:27:22;;;;;;;23.13;2.70;;;;;;;;;;5073122;28;20036;-63
2022/04/09 04:29:48;;;;;;;18.58;2.50;;;;;;;;;;5067052;28;20362;-61
2022/04/09 04:32:14;;;;;;;37.30;3.17;;;;;;;;;;5053063;28;20032;-63
2022/04/09 04:34:40;;;;;;;18.63;2.80;;;;;;;;;;5033859;28;20029;-62
2022/04/09 04:37:06;;;;;;;28.20;2.92;;;;;;;;;;5052996;28;20083;-63
2022/04/09 04:39:32;;;;;;;23.38;2.70;;;;;;;;;;5052817;28;20077;-62
2022/04/09 04:41:58;;;;;;;22.30;2.58;;;;;;;;;;5052653;28;20388;-60
2022/04/09 04:44:24;;;;;;;30.95;3.45;;;;;;;;;;5052863;28;20155;-61
2022/04/09 04:46:50;;;;;;;22.73;2.83;;;;;;;;;;5053025;28;20062;-66
2022/04/09 04:49:16;;;;;;;25.67;2.50;;;;;;;;;;5052589;28;20468;-62
2022/04/09 04:51:42;;;;;;;20.52;2.55;;;;;;;;;;5048982;28;20143;-64
2022/04/09 04:54:08;;;;;;;21.38;2.80;;;;;;;;;;5052772;28;20388;-64
2022/04/09 04:56:34;;;;;;;20.20;2.60;;;;;;;;;;5052739;28;20064;-62
2022/04/09 04:59:00;;;;;;;18.98;2.20;;;;;;;;;;5052945;28;20116;-65
2022/04/09 05:01:26;;;;;;;37.25;2.83;;;;;;;;;;5052719;28;20108;-66
2022/04/09 05:03:53;;;;;;;29.50;3.05;;;;;;;;;;5052118;28;20021;-65
2022/04/09 05:06:19;;;;;;;22.38;2.78;;;;;;;;;;5034374;28;20111;-60
2022/04/09 05:08:45;;;;;;;27.38;2.83;;;;;;;;;;5050950;28;20111;-60
2022/04/09 05:11:11;;;;;;;22.95;2.78;;;;;;;;;;5035234;28;20115;-60
2022/04/09 05:13:37;;;;;;;23.35;2.30;;;;;;;;;;5050960;28;20051;-67
2022/04/09 05:16:03;;;;;;;37.35;3.72;;;;;;;;;;5059932;28;20040;-67
2022/04/09 05:18:29;;;;;;;39.65;3.30;;;;;;;;;;5061668;28;20412;-68
2022/04/09 05:20:55;;;;;;;48.05;3.25;;;;;;;;;;5060409;28;20491;-61
2022/04/09 05:23:21;;;;;;;29.92;3.20;;;;;;;;;;5057256;28;20032;-60
2022/04/09 05:25:47;;;;;;;52.05;5.03;;;;;;;;;;5056280;28;20055;-65
2022/04/09 05:28:13;;;;;;;41.13;3.47;;;;;;;;;;5057142;28;20505;-63
2022/04/09 05:30:42;;;;;;;33.38;3.35;;;;;;;;;;5061439;28;20108;-59
2022/04/09 05:33:09;;;;;;;44.80;4.00;;;;;;;;;;5064878;28;20035;-62
2022/04/09 05:35:35;;;;;;;32.70;3.67;;;;;;;;;;5068704;28;20152;-64
2022/04/09 05:38:03;;;;;;;45.25;2.92;;;;;;;;;;5050423;28;20033;-63
2022/04/09 05:40:29;;;;;;;30.05;2.38;;;;;;;;;;5050713;28;20094;-66
2022/04/09 05:42:55;;;;;;;39.25;3.85;;;;;;;;;;5057624;28;20031;-65
2022/04/09 05:45:21;;;;;;;21.77;2.13;;;;;;;;;;5059711;28;20037;-66
2022/04/09 05:47:47;;;;;;;26.48;2.22;;;;;;;;;;5063477;28;20035;-66
2022/04/09 05:50:14;;;;;;;17.52;1.60;;;;;;;;;;5060330;28;20111;-68
2022/04/09 05:52:40;;;;;;;12.95;1.90;;;;;;;;;;5043853;28;20021;-70
2022/04/09 05:55:07;;;;;;;11.18;1.70;;;;;;;;;;5040244;28;20025;-70
2022/04/09 05:57:33;;;;;;;8.63;1.40;;;;;;;;;;5043101;28;20021;-71
2022/04/09 06:00:00;;;;;;;16.20;1.30;;;;;;;;;;5056258;28;20021;-71
2022/04/09 06:02:26;;;;;;;16.40;2.00;;;;;;;;;;5061869;28;20021;-70
2022/04/09 06:04:52;;;;;;;17.20;1.67;;;;;;;;;;5068733;28;20033;-71
2022/04/09 06:07:18;;;;;;;14.32;1.85;;;;;;;;;;5062018;28;20032;-70
2022/04/09 06:09:44;;;;;;;7.88;1.25;;;;;;;;;;5056136;28;20380;-71
2022/04/09 06:12:12;;;;;;;18.48;1.80;;;;;;;;;;5062183;28;20155;-70
2022/04/09 06:14:38;;;;;;;10.93;1.65;;;;;;;;;;5065442;28;20116;-70
2022/04/09 06:17:04;;;;;;;9.60;1.85;;;;;;;;;;5065146;28;20049;-68
2022/04/09 06:19:31;;;;;;;15.20;1.70;;;;;;;;;;5059127;28;20067;-70
2022/04/09 06:21:57;;;;;;;13.63;1.20;;;;;;;;;;5044863;28;20020;-70
2022/04/09 06:24:23;;;;;;;16.90;1.70;;;;;;;;;;5067855;28;20486;-71
2022/04/09 06:26:49;;;;;;;17.30;1.92;;;;;;;;;;5042260;28;20416;-71
2022/04/09 06:29:15;;;;;;;17.60;2.03;;;;;;;;;;5043939;28;20060;-69
2022/04/09 06:31:41;;;;;;;15.32;1.60;;;;;;;;;;5052291;28;20083;-69
2022/04/09 06:34:07;;;;;;;11.55;1.48;;;;;;;;;;5065422;28;20047;-66
2022/04/09 06:36:33;;;;;;;20.42;1.88;;;;;;;;;;5058652;28;20552;-65
2022/04/09 06:39:00;;;;;;;10.43;1.92;;;;;;;;;;5051527;28;20045;-66
2022/04/09 06:41:28;;;;;;;8.60;1.45;;;;;;;;;;5066573;28;20051;-67
2022/04/09 06:43:55;;;;;;;10.23;1.90;;;;;;;;;;5036138;28;20028;-69
2022/04/09 06:46:21;;;;;;;10.27;1.90;;;;;;;;;;5054488;28;20029;-69
2022/04/09 06:48:47;;;;;;;12.85;1.67;;;;;;;;;;5055749;28;20100;-70
2022/04/09 06:51:13;;;;;;;11.38;1.80;;;;;;;;;;5055675;28;20021;-70
2022/04/09 06:53:39;;;;;;;17.60;2.13;;;;;;;;;;5070193;28;20024;-69
2022/04/09 06:56:05;;;;;;;10.75;2.03;;;;;;;;;;5042609;28;20023;-71
2022/04/09 06:58:31;;;;;;;11.65;1.95;;;;;;;;;;5038883;28;20024;-71
2022/04/09 07:00:58;;;;;;;15.88;1.90;;;;;;;;;;5043540;28;20103;-70
2022/04/09 07:03:24;;;;;;;9.23;1.50;;;;;;;;;;5068893;28;20024;-69
2022/04/09 07:05:50;;;;;;;10.23;2.00;;;;;;;;;;5071214;28;20103;-71
2022/04/09 07:08:16;;;;;;;12.57;2.08;;;;;;;;;;5073437;28;20111;-67
2022/04/09 07:10:42;;;;;;;15.50;2.15;;;;;;;;;;5073521;28;20406;-65
2022/04/09 07:13:09;;;;;;;14.57;2.05;;;;;;;;;;5073856;28;20096;-63
2022/04/09 07:15:35;;;;;;;10.57;1.60;;;;;;;;;;5067254;28;20053;-64
2022/04/09 07:18:01;;;;;;;11.07;1.45;;;;;;;;;;5073481;28;20024;-66
2022/04/09 07:20:27;;;;;;;10.80;2.00;;;;;;;;;;5054805;28;20057;-66
2022/04/09 07:22:53;;;;;;;9.27;1.75;;;;;;;;;;5048314;28;20033;-66
2022/04/09 07:25:19;;;;;;;15.07;1.85;;;;;;;;;;5057265;28;20024;-64
2022/04/09 07:27:47;;;;;;;9.70;1.90;;;;;;;;;;5068078;28;20032;-70
2022/04/09 07:30:16;;;;;;;11.55;1.52;;;;;;;;;;5053467;28;20108;-68
2022/04/09 07:32:43;;;;;;;10.70;1.75;;;;;;;;;;5055352;28;20032;-66
2022/04/09 07:35:10;;;;;;;7.22;1.40;;;;;;;;;;5061444;28;20122;-64
2022/04/09 07:37:40;;;;;;;9.18;1.67;;;;;;;;;;5062273;28;20021;-63
2022/04/09 07:40:07;;;;;;;11.18;1.65;;;;;;;;;;5052229;28;20108;-61
2022/04/09 07:42:33;;;;;;;7.28;1.52;;;;;;;;;;5052672;28;20071;-67
2022/04/09 07:44:59;;;;;;;7.05;1.48;;;;;;;;;;5045513;28;20064;-66
2022/04/09 07:47:25;;;;;;;9.30;1.67;;;;;;;;;;5053340;28;20041;-65
2022/04/09 07:49:51;;;;;;;6.97;1.65;;;;;;;;;;5044347;28;20029;-65
2022/04/09 07:52:17;;;;;;;4.38;1.92;;;;;;;;;;5035024;28;20021;-67
2022/04/09 07:54:43;;;;;;;12.95;1.60;;;;;;;;;;5034370;28;20029;-65
2022/04/09 07:57:09;;;;;;;7.18;1.52;;;;;;;;;;5049998;28;20071;-65
2022/04/09 07:59:35;;;;;;;9.00;1.48;;;;;;;;;;5051071;28;20051;-62
2022/04/09 08:02:01;;;;;;;13.02;1.92;;;;;;;;;;5044884;28;20064;-63
2022/04/09 08:04:27;;;;;;;7.63;1.67;;;;;;;;;;5050059;28;20071;-63
2022/04/09 08:06:53;;;;;;;7.43;1.30;;;;;;;;;;5052707;28;20120;-64
2022/04/09 08:09:19;;;;;;;8.18;1.40;;;;;;;;;;5052701;28;20025;-65
2022/04/09 08:11:46;;;;;;;5.03;1.52;;;;;;;;;;5050206;28;20033;-66
2022/04/09 08:14:12;;;;;;;8.50;1.27;;;;;;;;;;5052056;28;20071;-66
2022/04/09 08:16:38;;;;;;;13.55;1.40;;;;;;;;;;5052653;28;20404;-63
2022/04/09 08:19:04;;;;;;;4.60;1.15;;;;;;;;;;5052828;28;20025;-63
2022/04/09 08:21:30;;;;;;;3.78;1.35;;;;;;;;;;5052617;28;20090;-62
2022/04/09 08:23:56;;;;;;;7.10;1.52;;;;;;;;;;5052497;28;20528;-67
2022/04/09 08:26:22;;;;;;;4.32;1.30;;;;;;;;;;5052295;28;20036;-65
2022/04/09 08:28:48;;;;;;;7.03;1.50;;;;;;;;;;5038251;28;20025;-65
2022/04/09 08:31:14;;;;;;;4.65;1.10;;;;;;;;;;5050168;28;20415;-64
2022/04/09 08:33:42;;;;;;;9.45;1.38;;;;;;;;;;5052282;28;20032;-64
2022/04/09 08:36:08;;;;;;;4.18;1.13;;;;;;;;;;5052783;28;20039;-66
2022/04/09 08:38:34;;;;;;;9.23;1.27;;;;;;;;;;5052131;28;20029;-63
2022/04/09 08:41:03;;;;;;;4.50;1.10;;;;;;;;;;5052147;28;20037;-63
2022/04/09 08:43:32;;;;;;;3.65;1.00;;;;;;;;;;5051106;28;20035;-61
2022/04/09 08:46:02;;;;;;;9.32;1.20;;;;;;;;;;5034802;28;20032;-63
2022/04/09 08:48:28;;;;;;;6.03;1.20;;;;;;;;;;5051477;28;20021;-65
2022/04/09 08:50:55;;;;;;;3.92;1.33;;;;;;;;;;5051939;28;20021;-61
2022/04/09 08:53:21;;;;;;;3.58;1.10;;;;;;;;;;5052313;28;20377;-67
2022/04/09 08:55:48;;;;;;;3.00;1.00;;;;;;;;;;5051823;28;20502;-63
2022/04/09 08:58:14;;;;;;;3.13;1.00;;;;;;;;;;5052045;28;20033;-65
2022/04/09 09:00:42;;;;;;;1.88;0.90;;;;;;;;;;5034078;28;20064;-63
2022/04/09 09:03:10;;;;;;;2.38;1.10;;;;;;;;;;5052212;28;20080;-65
2022/04/09 09:05:40;;;;;;;3.53;1.00;;;;;;;;;;5052069;28;20021;-62
2022/04/09 09:08:07;;;;;;;1.83;0.80;;;;;;;;;;5051780;28;20041;-66
2022/04/09 09:10:34;;;;;;;4.95;0.95;;;;;;;;;;5051980;28;20107;-64
2022/04/09 09:13:05;;;;;;;3.75;1.25;;;;;;;;;;5051942;28;20029;-65
2022/04/09 09:15:31;;;;;;;4.30;0.90;;;;;;;;;;5025343;28;20443;-67
2022/04/09 09:17:59;;;;;;;2.65;1.02;;;;;;;;;;5052183;28;20131;-67
2022/04/09 09:20:26;;;;;;;3.33;1.30;;;;;;;;;;5052210;28;20041;-67
2022/04/09 09:22:53;;;;;;;4.13;1.10;;;;;;;;;;5051755;28;20376;-65
2022/04/09 09:25:19;;;;;;;3.72;1.15;;;;;;;;;;5063065;28;20043;-66
2022/04/09 09:27:55;;;;;;;3.95;1.15;;;;;;;;;;5065416;28;20029;-67
2022/04/09 09:30:21;;;;;;;4.07;1.25;;;;;;;;;;5050455;28;20079;-66
2022/04/09 09:33:05;;;;;;;3.22;1.30;;;;;;;;;;5050916;28;20360;-67
2022/04/09 09:35:47;;;;;;;2.05;0.88;;;;;;;;;;5051245;28;20108;-65
2022/04/09 09:38:19;;;;;;;3.22;1.02;;;;;;;;;;5051476;28;20024;-65
2022/04/09 09:40:45;;;;;;;2.92;1.02;;;;;;;;;;5051446;28;20017;-64
2022/04/09 09:43:15;;;;;;;5.72;1.08;;;;;;;;;;5051456;28;20053;-66
2022/04/09 09:45:41;;;;;;;3.72;1.17;;;;;;;;;;5051502;28;20404;-61
2022/04/09 09:48:19;;;;;;;2.75;1.10;;;;;;;;;;5050977;28;20445;-66
2022/04/09 09:50:45;;;;;;;5.32;1.48;;;;;;;;;;5051412;28;20021;-67
2022/04/09 09:53:11;;;;;;;4.28;1.20;;;;;;;;;;5051461;28;20040;-66
2022/04/09 09:55:45;;;;;;;5.07;1.20;;;;;;;;;;5051381;28;20025;-61
2022/04/09 09:58:15;;;;;;;2.45;1.08;;;;;;;;;;5051267;28;20036;-67
2022/04/09 10:00:41;;;;;;;2.03;0.98;;;;;;;;;;5053091;28;20028;-66
2022/04/09 10:03:09;;;;;;;2.65;0.90;;;;;;;;;;5036173;28;20157;-65
2022/04/09 10:05:38;;;;;;;2.25;0.90;;;;;;;;;;5055460;28;20028;-65
2022/04/09 10:08:05;;;;;;;4.97;1.08;;;;;;;;;;5037178;28;20407;-64
2022/04/09 10:10:33;;;;;;;4.93;1.15;;;;;;;;;;5059125;28;20033;-62
2022/04/09 10:13:00;;;;;;;4.90;1.10;;;;;;;;;;5070905;28;20036;-64
2022/04/09 10:15:26;;;;;;;2.63;1.13;;;;;;;;;;5071887;28;20072;-63
2022/04/09 10:17:54;;;;;;;3.30;1.15;;;;;;;;;;5065436;28;20013;-64
2022/04/09 10:20:20;;;;;;;5.38;1.40;;;;;;;;;;5036505;28;20074;-63
2022/04/09 10:22:46;;;;;;;5.97;1.45;;;;;;;;;;5054855;28;20021;-65
2022/04/09 10:25:14;;;;;;;6.82;1.25;;;;;;;;;;5054629;28;20024;-65
2022/04/09 10:27:42;;;;;;;4.38;1.08;;;;;;;;;;5054434;28;20039;-65
2022/04/09 10:30:08;;;;;;;6.10;1.60;;;;;;;;;;5054272;28;20039;-65
2022/04/09 10:32:44;;;;;;;9.57;1.40;;;;;;;;;;5036723;28;20464;-66
2022/04/09 10:35:25;;;;;;;7.85;1.52;;;;;;;;;;5054902;28;20033;-64
2022/04/09 10:38:21;;;;;;;5.80;1.20;;;;;;;;;;5055183;28;20056;-65
2022/04/09 10:40:50;;;;;;;7.00;1.50;;;;;;;;;;5020619;28;20040;-64
2022/04/09 10:43:22;;;;;;;6.32;1.65;;;;;;;;;;5050439;28;20029;-66
2022/04/09 10:46:07;;;;;;;8.07;1.20;;;;;;;;;;5053658;28;20392;-66
2022/04/09 10:48:34;;;;;;;5.70;1.45;;;;;;;;;;5054116;28;20094;-64
2022/04/09 10:51:04;;;;;;;5.38;1.20;;;;;;;;;;5054235;28;20389;-65
2022/04/09 10:53:31;;;;;;;3.65;1.17;;;;;;;;;;5036648;28;20029;-64
2022/04/09 10:56:26;;;;;;;7.30;1.30;;;;;;;;;;5054535;28;20028;-63
2022/04/09 10:59:16;;;;;;;5.50;1.23;;;;;;;;;;5054627;28;20029;-63
2022/04/09 11:01:48;;;;;;;5.07;1.17;;;;;;;;;;5054144;28;20017;-64
2022/04/09 11:04:26;;;;;;;4.17;1.13;;;;;;;;;;5054336;28;20021;-63
2022/04/09 11:07:05;;;;;;;5.63;1.77;;;;;;;;;;5054402;28;20416;-66
2022/04/09 11:09:40;;;;;;;3.85;1.13;;;;;;;;;;5054162;28;20032;-65
2022/04/09 11:12:07;;;;;;;5.95;1.40;;;;;;;;;;5029931;28;20427;-67
2022/04/09 11:14:43;;;;;;;4.45;1.40;;;;;;;;;;5053651;28;20521;-66
2022/04/09 11:17:18;;;;;;;5.88;0.95;;;;;;;;;;5054082;28;20024;-66
2022/04/09 11:19:45;;;;;;;4.35;1.30;;;;;;;;;;5053329;28;20025;-67
2022/04/09 11:22:11;;;;;;;4.38;1.40;;;;;;;;;;5052291;28;20171;-65
2022/04/09 11:24:38;;;;;;;6.55;1.35;;;;;;;;;;5051446;28;20039;-67
2022/04/09 11:27:04;;;;;;;4.50;1.17;;;;;;;;;;5033275;28;20396;-68
2022/04/09 11:29:33;;;;;;;3.50;0.98;;;;;;;;;;5050138;28;20033;-68
2022/04/09 11:32:00;;;;;;;3.60;1.25;;;;;;;;;;5048052;28;20033;-67
2022/04/09 11:34:26;;;;;;;4.10;1.20;;;;;;;;;;5051727;28;20025;-68
2022/04/09 11:37:06;;;;;;;4.15;1.00;;;;;;;;;;5051966;28;20081;-66
2022/04/09 11:39:37;;;;;;;5.10;1.13;;;;;;;;;;5048449;28;20175;-67
2022/04/09 11:42:03;;;;;;;3.95;1.10;;;;;;;;;;5043565;28;20033;-67
2022/04/09 11:44:29;;;;;;;4.70;1.25;;;;;;;;;;5048264;28;20414;-67
2022/04/09 11:46:55;;;;;;;9.00;1.20;;;;;;;;;;5052945;28;20060;-64
2022/04/09 11:49:28;;;;;;;7.55;1.10;;;;;;;;;;5052339;28;20150;-65
2022/04/09 11:51:55;;;;;;;5.07;1.00;;;;;;;;;;5052607;28;20473;-66
2022/04/09 11:54:21;;;;;;;10.18;0.85;;;;;;;;;;5051889;28;20110;-65
2022/04/09 11:56:47;;;;;;;2.85;0.90;;;;;;;;;;5051775;28;20496;-66
2022/04/09 11:59:13;;;;;;;4.35;1.10;;;;;;;;;;5051227;28;20075;-63
2022/04/09 12:01:44;;;;;;;7.63;1.20;;;;;;;;;;5049616;28;20047;-66
2022/04/09 12:04:10;;;;;;;3.78;1.00;;;;;;;;;;5051272;28;20044;-65
2022/04/09 12:06:37;;;;;;;4.22;0.82;;;;;;;;;;5051804;28;20033;-64
2022/04/09 12:09:03;;;;;;;4.20;0.93;;;;;;;;;;5051701;28;20032;-63
2022/04/09 12:11:29;;;;;;;7.95;1.00;;;;;;;;;;5033686;28;20365;-68
2022/04/09 12:13:55;;;;;;;6.43;1.02;;;;;;;;;;5033812;28;21397;-69
2022/04/09 12:16:21;;;;;;;7.82;0.80;;;;;;;;;;5051453;28;20379;-68
2022/04/09 12:18:48;;;;;;;7.28;1.10;;;;;;;;;;5053365;28;20059;-70
2022/04/09 12:21:17;;;;;;;12.20;1.55;;;;;;;;;;5041730;28;20074;-70
2022/04/09 12:23:43;;;;;;;21.67;1.30;;;;;;;;;;5033318;28;20538;-76
2022/04/09 12:26:22;;;;;;;28.48;1.67;;;;;;;;;;5058295;28;20037;-70
2022/04/09 12:29:04;;;;;;;31.67;1.77;;;;;;;;;;5033299;28;20048;-71
2022/04/09 12:31:32;;;;;;;12.90;1.30;;;;;;;;;;5048572;28;20116;-70
2022/04/09 12:33:58;;;;;;;14.32;1.67;;;;;;;;;;5048511;28;20147;-71
2022/04/09 12:36:24;;;;;;;21.42;1.88;;;;;;;;;;5032950;28;20061;-69
2022/04/09 12:38:50;;;;;;;37.13;2.20;;;;;;;;;;5043953;28;20041;-69
2022/04/09 12:41:16;;;;;;;28.17;2.25;;;;;;;;;;5051409;28;20025;-69
2022/04/09 12:43:43;;;;;;;24.95;2.28;;;;;;;;;;5052326;28;20025;-71
2022/04/09 12:46:11;;;;;;;21.98;1.95;;;;;;;;;;5047480;28;20878;-69
2022/04/09 12:48:46;;;;;;;27.60;2.00;;;;;;;;;;5055822;28;20124;-67
2022/04/09 12:51:13;;;;;;;35.30;2.22;;;;;;;;;;5032612;28;20087;-69
2022/04/09 12:53:39;;;;;;;26.05;2.17;;;;;;;;;;5036305;28;20128;-65
2022/04/09 12:56:06;;;;;;;19.20;1.90;;;;;;;;;;5061099;28;20371;-66
2022/04/09 12:58:32;;;;;;;19.42;2.05;;;;;;;;;;5060150;28;20518;-67
2022/04/09 13:00:58;;;;;;;25.00;1.95;;;;;;;;;;5064531;28;20476;-67
2022/04/09 13:03:24;;;;;;;26.70;1.65;;;;;;;;;;5066095;28;20467;-67
2022/04/09 13:05:51;;;;;;;12.15;1.88;;;;;;;;;;5050701;28;20082;-70
2022/04/09 13:08:17;;;;;;;24.88;1.88;;;;;;;;;;5033020;28;20025;-66
2022/04/09 13:10:43;;;;;;;56.67;2.50;;;;;;;;;;5032766;28;20074;-65
2022/04/09 13:13:09;;;;;;;46.03;2.67;;;;;;;;;;5050911;28;20047;-69
2022/04/09 13:15:35;;;;;;;30.50;2.70;;;;;;;;;;5048718;28;20052;-69
2022/04/09 13:18:01;;;;;;;24.75;2.72;;;;;;;;;;5046581;28;20038;-67
2022/04/09 13:20:27;;;;;;;16.20;2.03;;;;;;;;;;5047108;28;20104;-68
2022/04/09 13:22:53;;;;;;;21.23;2.08;;;;;;;;;;5047059;28;20037;-69
2022/04/09 13:25:20;;;;;;;20.13;2.45;;;;;;;;;;5048271;28;20040;-70
2022/04/09 13:27:47;;;;;;;20.67;2.83;;;;;;;;;;5041264;28;20372;-69
2022/04/09 13:30:14;;;;;;;13.00;2.45;;;;;;;;;;5028824;28;20033;-68
2022/04/09 13:32:40;;;;;;;16.13;2.20;;;;;;;;;;5037016;28;20129;-68
2022/04/09 13:35:06;;;;;;;15.88;2.88;;;;;;;;;;5032797;28;20042;-67
2022/04/09 13:37:33;;;;;;;12.57;2.38;;;;;;;;;;5035689;28;20148;-68
2022/04/09 13:39:59;;;;;;;18.27;2.50;;;;;;;;;;5035764;28;20010;-69
2022/04/09 13:42:25;;;;;;;14.05;1.95;;;;;;;;;;5040141;28;20049;-69
2022/04/09 13:44:54;;;;;;;14.05;2.53;;;;;;;;;;5059579;28;20037;-70
2022/04/09 13:47:21;;;;;;;16.38;2.03;;;;;;;;;;5043868;28;20518;-68
2022/04/09 13:49:47;;;;;;;19.88;2.35;;;;;;;;;;5039528;28;20043;-69
2022/04/09 13:52:13;;;;;;;10.43;2.13;;;;;;;;;;5056525;28;20036;-70
2022/04/09 13:54:39;;;;;;;11.38;2.50;;;;;;;;;;5035780;28;20021;-70
2022/04/09 13:57:05;;;;;;;10.23;2.17;;;;;;;;;;5036348;28;20030;-68
2022/04/09 13:59:32;;;;;;;7.75;2.33;;;;;;;;;;5053844;28;20773;-66
2022/04/09 14:01:58;;;;;;;10.07;2.45;;;;;;;;;;5054058;28;20452;-66
2022/04/09 14:04:24;;;;;;;10.20;2.28;;;;;;;;;;5060693;28;20047;-67
2022/04/09 14:06:50;;;;;;;11.93;2.60;;;;;;;;;;5053498;28;20495;-67
2022/04/09 14:09:16;;;;;;;8.60;1.85;;;;;;;;;;5059132;28;20421;-68
2022/04/09 14:11:43;;;;;;;10.20;1.95;;;;;;;;;;5040649;28;20017;-66
2022/04/09 14:14:09;;;;;;;10.32;2.45;;;;;;;;;;5031617;28;20048;-67
2022/04/09 14:16:35;;;;;;;7.03;2.22;;;;;;;;;;5058701;28;20032;-70
2022/04/09 14:19:01;;;;;;;11.55;2.28;;;;;;;;;;5057298;28;20017;-66
2022/04/09 14:21:28;;;;;;;5.03;1.58;;;;;;;;;;5063012;28;20033;-68
2022/04/09 14:23:55;;;;;;;5.60;1.90;;;;;;;;;;5032196;28;20444;-67
2022/04/09 14:26:21;;;;;;;9.02;1.80;;;;;;;;;;5045094;28;20037;-67
2022/04/09 14:28:46;;;;;;;8.05;2.35;;;;;;;;;;5055617;28;20036;-68
2022/04/09 14:31:13;;;;;;;9.13;2.05;;;;;;;;;;5059341;28;20071;-67
2022/04/09 14:33:39;;;;;;;12.30;2.42;;;;;;;;;;5058067;28;20041;-69
2022/04/09 14:36:06;;;;;;;7.35;1.77;;;;;;;;;;5053348;28;20091;-67
2022/04/09 14:38:32;;;;;;;7.95;1.98;;;;;;;;;;5047168;28;20089;-69